This is the latest recevied weather packets stored in our database for station/object GCEMA. If no packets are shown the sender has not sent any weather packets the latest 10 day(s).
| Time | Temp. | Humidity | Pressure | Rain* | Wind** | Luminosity | Snow |
|---|---|---|---|---|---|---|---|
| 1777480429 | 17.22° C | - | 1010.5 hPa | 0 mm | 0 m/s | - | - |
| 1777480249 | 17.78° C | - | 1010.5 hPa | 0 mm | 0 m/s | - | - |
| 1777480070 | 16.11° C | - | 1010.6 hPa | 0 mm | 0 m/s | - | - |
| 1777479887 | 16.67° C | - | 1010.4 hPa | 0 mm | 0 m/s | - | - |
| 1777479708 | 17.78° C | - | 1010.3 hPa | 0 mm | 0 m/s | - | - |
| 1777479528 | 16.67° C | - | 1010.3 hPa | 0 mm | 0 m/s | - | - |
| 1777479349 | 17.22° C | - | 1010.3 hPa | 0 mm | 0 m/s | - | - |
| 1777479169 | 18.89° C | - | 1010.2 hPa | 0 mm | 0 m/s | - | - |
| 1777478988 | 17.78° C | - | 1010.2 hPa | 0 mm | 0 m/s | - | - |
| 1777478807 | 16.67° C | - | 1010.3 hPa | 0 mm | 0 m/s | - | - |
| 1777478628 | 17.22° C | - | 1010.2 hPa | 0 mm | 0 m/s | - | - |
| 1777478448 | 17.22° C | - | 1010.2 hPa | 0 mm | 0 m/s | - | - |
| 1777478269 | 17.22° C | - | 1010.3 hPa | 0 mm | 0 m/s | - | - |
| 1777478086 | 16.67° C | - | 1010.3 hPa | 0 mm | 0 m/s | - | - |
| 1777477907 | 17.78° C | - | 1010.3 hPa | 0 mm | 0 m/s | - | - |
| 1777477727 | 16.67° C | - | 1010.3 hPa | 0 mm | 0 m/s | - | - |
| 1777477547 | 16.11° C | - | 1010.3 hPa | 0 mm | 0 m/s | - | - |
| 1777477368 | 16.67° C | - | 1010.3 hPa | 0 mm | 0 m/s | - | - |
| 1777477185 | 17.22° C | - | 1010.2 hPa | 0 mm | 0 m/s | - | - |
| 1777477006 | 16.67° C | - | 1010.4 hPa | 0 mm | 0 m/s | - | - |
| 1777476826 | 16.11° C | - | 1010.4 hPa | 0 mm | 0 m/s | - | - |
| 1777476647 | 16.11° C | - | 1010.4 hPa | 0 mm | 0 m/s | - | - |
| 1777476467 | 16.67° C | - | 1010.4 hPa | 0 mm | 0 m/s | - | - |
| 1777476285 | 16.11° C | - | 1010.3 hPa | 0 mm | 0 m/s | - | - |
| 1777476105 | 16.67° C | - | 1010.3 hPa | 0 mm | 0 m/s | - | - |
* Rain latest hour (hover to see other rain measurements)
** Current wind speed in m/s (hover to see current wind gust speed)